Time;durP1;ratioP1;P1;durP2;ratioP2;P2;SDS_P1;SDS_P2;PMS_P1;PMS_P2;Temp;Humidity;BMP_temperature;BMP_pressure;BME280_temperature;BME280_humidity;BME280_pressure;Samples;Min_cycle;Max_cycle;Signal;HPM_P1;HPM_P2
2022/06/02 00:00:12;;;;;;;257.37;52.00;;;;;;;;;;5069791;28;20049;-60
2022/06/02 00:02:55;;;;;;;309.80;64.50;;;;;;;;;;5070016;28;20052;-60
2022/06/02 00:05:21;;;;;;;71.17;33.13;;;;;;;;;;5069923;28;20048;-60
2022/06/02 00:07:47;;;;;;;84.53;34.70;;;;;;;;;;5060071;28;20102;-60
2022/06/02 00:10:21;;;;;;;97.87;37.27;;;;;;;;;;5050722;28;20127;-60
2022/06/02 00:12:53;;;;;;;64.30;27.70;;;;;;;;;;5069920;28;20087;-60
2022/06/02 00:15:23;;;;;;;83.33;32.47;;;;;;;;;;5069953;28;20117;-60
2022/06/02 00:18:05;;;;;;;64.57;30.07;;;;;;;;;;5069744;28;20477;-60
2022/06/02 00:20:40;;;;;;;73.90;31.33;;;;;;;;;;5069172;28;20044;-60
2022/06/02 00:23:25;;;;;;;59.03;28.60;;;;;;;;;;5068068;28;20051;-60
2022/06/02 00:25:51;;;;;;;69.83;30.33;;;;;;;;;;5068474;28;20131;-60
2022/06/02 00:28:35;;;;;;;63.97;29.97;;;;;;;;;;5069134;28;20191;-59
2022/06/02 00:31:12;;;;;;;61.13;30.07;;;;;;;;;;5069398;28;20399;-60
2022/06/02 00:33:42;;;;;;;59.73;27.13;;;;;;;;;;5069532;28;20102;-60
2022/06/02 00:36:28;;;;;;;61.93;27.67;;;;;;;;;;5068890;28;20055;-60
2022/06/02 00:38:57;;;;;;;52.40;25.47;;;;;;;;;;5069474;28;20131;-60
2022/06/02 00:41:32;;;;;;;61.97;28.23;;;;;;;;;;5069172;28;20503;-60
2022/06/02 00:44:10;;;;;;;54.97;26.97;;;;;;;;;;5069069;28;20056;-60
2022/06/02 00:46:36;;;;;;;92.93;37.40;;;;;;;;;;5069318;28;20465;-60
2022/06/02 00:49:21;;;;;;;82.80;35.10;;;;;;;;;;5064528;28;20045;-60
2022/06/02 00:52:05;;;;;;;94.00;35.83;;;;;;;;;;5049368;28;20148;-60
2022/06/02 00:57:31;;;;;;;161.37;45.83;;;;;;;;;;5048867;28;20052;-60
2022/06/02 01:00:02;;;;;;;86.67;36.30;;;;;;;;;;5051503;28;20052;-60
2022/06/02 01:02:30;;;;;;;89.67;36.23;;;;;;;;;;5053429;28;20055;-59
2022/06/02 01:05:00;;;;;;;73.97;31.53;;;;;;;;;;5052782;28;20088;-60
2022/06/02 01:07:26;;;;;;;56.93;26.60;;;;;;;;;;5053133;28;20063;-60
2022/06/02 01:10:03;;;;;;;71.77;29.00;;;;;;;;;;5052885;28;20136;-59
2022/06/02 01:12:47;;;;;;;63.87;29.47;;;;;;;;;;5052903;28;20578;-60
2022/06/02 01:15:27;;;;;;;79.33;33.47;;;;;;;;;;5052175;28;20049;-60
2022/06/02 01:18:04;;;;;;;60.77;29.33;;;;;;;;;;5051266;28;20491;-60
2022/06/02 01:20:43;;;;;;;47.97;27.23;;;;;;;;;;5065525;28;20499;-60
2022/06/02 01:23:09;;;;;;;53.83;26.27;;;;;;;;;;5053354;28;20056;-60
2022/06/02 01:25:46;;;;;;;55.60;28.77;;;;;;;;;;5052708;28;20594;-60
2022/06/02 01:28:28;;;;;;;58.00;28.43;;;;;;;;;;5051584;28;20077;-60
2022/06/02 01:31:06;;;;;;;75.37;31.10;;;;;;;;;;5052630;28;20044;-60
2022/06/02 01:33:38;;;;;;;158.20;51.20;;;;;;;;;;5052364;28;20045;-60
2022/06/02 01:36:04;;;;;;;107.97;39.03;;;;;;;;;;5052483;28;20052;-60
2022/06/02 01:38:43;;;;;;;101.33;38.00;;;;;;;;;;5052631;28;20044;-60
2022/06/02 01:41:25;;;;;;;107.03;40.17;;;;;;;;;;5051871;28;20104;-60
2022/06/02 01:43:54;;;;;;;116.13;40.50;;;;;;;;;;5052287;28;21137;-60
2022/06/02 01:46:38;;;;;;;110.37;42.67;;;;;;;;;;5052134;28;20044;-60
2022/06/02 01:49:07;;;;;;;107.28;42.67;;;;;;;;;;5053230;28;20047;-60
2022/06/02 01:51:49;;;;;;;147.57;50.17;;;;;;;;;;5052117;28;20053;-59
2022/06/02 01:54:18;;;;;;;130.60;47.77;;;;;;;;;;5052212;28;20045;-60
2022/06/02 01:56:50;;;;;;;141.87;45.37;;;;;;;;;;5052206;28;20055;-60
2022/06/02 01:59:25;;;;;;;149.27;40.90;;;;;;;;;;5051860;28;20462;-60
2022/06/02 02:01:56;;;;;;;50.80;24.50;;;;;;;;;;5051985;28;20041;-59
2022/06/02 02:04:26;;;;;;;71.73;30.17;;;;;;;;;;5051477;28;20500;-60
2022/06/02 02:07:10;;;;;;;58.23;28.87;;;;;;;;;;5051551;28;20049;-60
2022/06/02 02:09:43;;;;;;;53.73;26.33;;;;;;;;;;5049803;28;20510;-60
2022/06/02 02:12:33;;;;;;;86.78;32.05;;;;;;;;;;5051097;28;20052;-60
2022/06/02 02:14:59;;;;;;;52.23;25.93;;;;;;;;;;5049751;28;20097;-60
2022/06/02 02:17:25;;;;;;;72.17;31.83;;;;;;;;;;5050563;28;20045;-60
2022/06/02 02:20:10;;;;;;;48.73;26.30;;;;;;;;;;5051916;28;20051;-60
2022/06/02 02:22:56;;;;;;;56.43;28.93;;;;;;;;;;5051441;28;20056;-60
2022/06/02 02:25:27;;;;;;;67.73;32.50;;;;;;;;;;5051628;28;20040;-60
2022/06/02 02:28:02;;;;;;;52.13;25.77;;;;;;;;;;5050974;28;20041;-60
2022/06/02 02:30:31;;;;;;;90.33;34.37;;;;;;;;;;5051395;28;20053;-60
2022/06/02 02:33:04;;;;;;;69.13;31.57;;;;;;;;;;5065548;28;20057;-60
2022/06/02 02:35:46;;;;;;;142.98;45.67;;;;;;;;;;5051813;28;20041;-60
2022/06/02 02:38:29;;;;;;;107.63;34.23;;;;;;;;;;5033963;28;20124;-60
2022/06/02 02:40:57;;;;;;;174.40;36.85;;;;;;;;;;5051575;28;20081;-60
2022/06/02 02:43:39;;;;;;;312.47;42.07;;;;;;;;;;5051564;28;20106;-60
2022/06/02 02:46:10;;;;;;;198.13;38.43;;;;;;;;;;5052003;28;20090;-60
2022/06/02 02:48:49;;;;;;;286.70;45.67;;;;;;;;;;5051392;28;20159;-60
2022/06/02 02:51:27;;;;;;;121.87;31.93;;;;;;;;;;5051271;28;20044;-60
2022/06/02 02:54:01;;;;;;;72.90;25.47;;;;;;;;;;5050938;28;20037;-60
2022/06/02 02:56:36;;;;;;;56.73;20.73;;;;;;;;;;5063844;28;20053;-60
2022/06/02 02:59:07;;;;;;;74.63;25.60;;;;;;;;;;5051056;28;20524;-59
2022/06/02 03:01:54;;;;;;;69.77;27.07;;;;;;;;;;5050947;28;20055;-60
2022/06/02 03:04:20;;;;;;;59.00;25.27;;;;;;;;;;5050683;28;20483;-60
2022/06/02 03:06:47;;;;;;;61.40;27.10;;;;;;;;;;5050270;28;20041;-60
2022/06/02 03:09:16;;;;;;;136.50;42.83;;;;;;;;;;5068002;28;20049;-60
2022/06/02 03:11:48;;;;;;;156.27;43.60;;;;;;;;;;5070680;28;20043;-60
2022/06/02 03:14:34;;;;;;;88.47;35.13;;;;;;;;;;5069392;28;20056;-60
2022/06/02 03:17:03;;;;;;;76.97;32.53;;;;;;;;;;5053087;28;20143;-60
2022/06/02 03:19:37;;;;;;;70.93;32.43;;;;;;;;;;5050560;28;20052;-60
2022/06/02 03:22:09;;;;;;;49.60;25.77;;;;;;;;;;5049859;28;20049;-60
2022/06/02 03:24:35;;;;;;;89.37;35.67;;;;;;;;;;5053615;28;20060;-60
2022/06/02 03:27:13;;;;;;;136.20;44.53;;;;;;;;;;5049915;28;20059;-60
2022/06/02 03:29:45;;;;;;;128.23;42.70;;;;;;;;;;5049596;28;20156;-60
2022/06/02 03:32:29;;;;;;;159.03;50.37;;;;;;;;;;5056624;28;20175;-60
2022/06/02 03:35:20;;;;;;;119.87;42.37;;;;;;;;;;5057976;28;20049;-60
2022/06/02 03:37:49;;;;;;;93.07;37.20;;;;;;;;;;5059524;28;20132;-60
2022/06/02 03:40:15;;;;;;;79.20;36.10;;;;;;;;;;5058071;28;20076;-60
2022/06/02 03:42:41;;;;;;;210.00;48.57;;;;;;;;;;5058773;28;20048;-60
2022/06/02 03:45:07;;;;;;;1069.40;132.67;;;;;;;;;;5059826;28;20044;-60
2022/06/02 03:47:35;;;;;;;989.27;133.07;;;;;;;;;;5057740;28;20049;-60
2022/06/02 03:50:20;;;;;;;842.40;119.70;;;;;;;;;;5060479;28;20071;-60
2022/06/02 03:53:04;;;;;;;508.97;87.17;;;;;;;;;;5058342;28;20045;-60
2022/06/02 03:55:36;;;;;;;198.27;53.97;;;;;;;;;;5059517;28;20072;-60
2022/06/02 03:58:02;;;;;;;446.57;80.23;;;;;;;;;;5058127;28;20052;-60
2022/06/02 04:00:46;;;;;;;361.40;68.53;;;;;;;;;;5059937;28;20049;-60
2022/06/02 04:03:15;;;;;;;288.10;61.87;;;;;;;;;;5059458;28;20064;-60
2022/06/02 04:06:02;;;;;;;423.33;77.20;;;;;;;;;;5058958;28;20094;-60
2022/06/02 04:08:28;;;;;;;945.20;129.53;;;;;;;;;;5040063;28;20147;-60
2022/06/02 04:11:19;;;;;;;830.37;116.70;;;;;;;;;;5059514;28;20131;-60
2022/06/02 04:13:47;;;;;;;856.23;115.67;;;;;;;;;;5055186;28;20075;-60
2022/06/02 04:16:13;;;;;;;791.63;110.93;;;;;;;;;;5059211;28;20045;-60
2022/06/02 04:18:42;;;;;;;840.70;116.67;;;;;;;;;;5058552;28;20059;-60
2022/06/02 04:21:08;;;;;;;868.27;115.23;;;;;;;;;;5069084;28;20059;-60
2022/06/02 04:23:39;;;;;;;551.07;92.37;;;;;;;;;;5069763;28;20044;-60
2022/06/02 04:26:24;;;;;;;773.07;111.53;;;;;;;;;;5068975;28;20123;-60
2022/06/02 04:28:54;;;;;;;577.83;89.07;;;;;;;;;;5053811;28;20045;-60
2022/06/02 04:31:23;;;;;;;653.17;100.57;;;;;;;;;;5049128;28;20120;-60
2022/06/02 04:33:52;;;;;;;629.70;102.97;;;;;;;;;;5048990;28;20383;-60
2022/06/02 04:36:32;;;;;;;624.33;98.87;;;;;;;;;;5031240;28;20080;-60
2022/06/02 04:38:58;;;;;;;663.60;103.10;;;;;;;;;;5048861;28;20106;-61
2022/06/02 04:41:30;;;;;;;726.60;109.30;;;;;;;;;;5049394;28;20056;-61
2022/06/02 04:44:09;;;;;;;710.27;112.07;;;;;;;;;;5049257;28;20098;-61
2022/06/02 04:46:54;;;;;;;519.00;95.37;;;;;;;;;;5049074;28;20090;-62
2022/06/02 04:49:20;;;;;;;416.47;83.40;;;;;;;;;;5049006;28;20103;-62
2022/06/02 04:51:52;;;;;;;383.43;78.23;;;;;;;;;;5048811;28;20052;-62
2022/06/02 04:54:37;;;;;;;293.83;70.40;;;;;;;;;;5048786;28;20071;-61
2022/06/02 04:57:22;;;;;;;179.47;56.53;;;;;;;;;;5066961;28;20048;-62
2022/06/02 04:59:48;;;;;;;138.73;51.07;;;;;;;;;;5069037;28;20143;-61
2022/06/02 05:02:36;;;;;;;130.17;52.03;;;;;;;;;;5066181;28;20191;-62
2022/06/02 05:05:21;;;;;;;89.83;41.50;;;;;;;;;;5055860;28;20037;-62
2022/06/02 05:08:03;;;;;;;159.43;54.77;;;;;;;;;;5069062;28;20132;-62
2022/06/02 05:10:32;;;;;;;92.23;40.90;;;;;;;;;;5064293;28;20049;-62
2022/06/02 05:13:04;;;;;;;99.97;44.70;;;;;;;;;;5048906;28;20052;-62
2022/06/02 05:15:56;;;;;;;122.23;48.07;;;;;;;;;;5048686;28;20056;-62
2022/06/02 05:18:22;;;;;;;92.80;43.97;;;;;;;;;;5048635;28;20045;-62
2022/06/02 05:21:03;;;;;;;84.70;41.10;;;;;;;;;;5047543;28;20477;-62
2022/06/02 05:23:48;;;;;;;88.60;44.87;;;;;;;;;;5048589;28;20045;-62
2022/06/02 05:26:19;;;;;;;89.17;43.50;;;;;;;;;;5060477;28;20045;-62
2022/06/02 05:29:05;;;;;;;82.63;41.20;;;;;;;;;;5051309;28;20203;-62
2022/06/02 05:31:46;;;;;;;89.97;43.50;;;;;;;;;;5059416;28;20044;-62
2022/06/02 05:34:15;;;;;;;86.00;43.20;;;;;;;;;;5059551;28;20076;-62
2022/06/02 05:37:01;;;;;;;74.33;41.43;;;;;;;;;;5059927;28;20534;-62
2022/06/02 05:39:33;;;;;;;73.97;41.73;;;;;;;;;;5060288;28;20450;-62
2022/06/02 05:42:20;;;;;;;72.07;40.47;;;;;;;;;;5056397;28;20084;-62
2022/06/02 05:44:49;;;;;;;64.73;38.07;;;;;;;;;;5049477;28;20422;-62
2022/06/02 05:47:30;;;;;;;68.03;38.53;;;;;;;;;;5052476;28;20053;-62
2022/06/02 05:49:56;;;;;;;64.37;37.70;;;;;;;;;;5051760;28;20056;-62
2022/06/02 05:52:34;;;;;;;55.90;34.30;;;;;;;;;;5052079;28;20044;-62
2022/06/02 05:55:00;;;;;;;55.77;33.17;;;;;;;;;;5063126;28;20045;-62
2022/06/02 05:57:53;;;;;;;58.53;33.40;;;;;;;;;;5065742;28;20040;-62
2022/06/02 06:00:20;;;;;;;59.07;33.40;;;;;;;;;;5057140;28;20453;-62
2022/06/02 06:02:46;;;;;;;40.20;26.93;;;;;;;;;;5059433;28;20056;-62
2022/06/02 06:05:15;;;;;;;46.33;28.17;;;;;;;;;;5061234;28;20188;-62
2022/06/02 06:08:05;;;;;;;51.03;30.30;;;;;;;;;;5061117;28;20055;-62
2022/06/02 06:10:54;;;;;;;43.27;26.30;;;;;;;;;;5051993;28;20415;-62
2022/06/02 06:13:39;;;;;;;49.07;30.47;;;;;;;;;;5060944;28;20044;-62
2022/06/02 06:16:05;;;;;;;36.43;25.70;;;;;;;;;;5058007;28;20044;-62
2022/06/02 06:18:46;;;;;;;53.73;27.70;;;;;;;;;;5068625;28;20045;-62
2022/06/02 06:21:29;;;;;;;33.37;21.10;;;;;;;;;;5064370;28;20048;-62
2022/06/02 06:24:13;;;;;;;45.22;27.67;;;;;;;;;;5060035;28;20047;-62
2022/06/02 06:26:59;;;;;;;31.47;21.77;;;;;;;;;;5060075;28;20119;-62
2022/06/02 06:29:44;;;;;;;36.33;22.90;;;;;;;;;;5061624;28;20045;-62
2022/06/02 06:32:10;;;;;;;28.77;20.17;;;;;;;;;;5062107;28;20059;-62
2022/06/02 06:35:08;;;;;;;27.17;19.37;;;;;;;;;;5060550;28;20048;-62
2022/06/02 06:37:34;;;;;;;36.93;21.70;;;;;;;;;;5039484;28;20044;-62
2022/06/02 06:40:07;;;;;;;24.50;16.37;;;;;;;;;;5059909;28;20060;-62
2022/06/02 06:42:36;;;;;;;32.13;21.07;;;;;;;;;;5062233;28;20049;-63
2022/06/02 06:45:06;;;;;;;27.00;17.20;;;;;;;;;;5065048;28;20052;-62
2022/06/02 06:48:04;;;;;;;22.80;16.60;;;;;;;;;;5067519;28;20578;-62
2022/06/02 06:50:37;;;;;;;21.43;15.60;;;;;;;;;;5046062;28;20048;-62
2022/06/02 06:53:03;;;;;;;19.08;13.10;;;;;;;;;;5068098;28;20501;-62
2022/06/02 06:55:44;;;;;;;16.07;12.43;;;;;;;;;;5062934;28;20045;-62
2022/06/02 06:58:28;;;;;;;16.93;11.60;;;;;;;;;;5055076;28;20502;-63
2022/06/02 07:01:09;;;;;;;12.23;9.47;;;;;;;;;;5058379;28;20423;-63
2022/06/02 07:03:47;;;;;;;14.97;10.67;;;;;;;;;;5062223;28;20513;-63
2022/06/02 07:06:27;;;;;;;13.63;8.63;;;;;;;;;;5066512;28;20052;-63
2022/06/02 07:09:16;;;;;;;12.83;9.50;;;;;;;;;;5054127;28;20384;-63
2022/06/02 07:14:34;;;;;;;11.50;9.20;;;;;;;;;;5050760;28;20106;-63
2022/06/02 07:17:00;;;;;;;;;;;;;;;;;;5061859;28;20045;-63
2022/06/02 07:19:38;;;;;;;9.83;7.00;;;;;;;;;;5058285;28;19920;-63
2022/06/02 07:22:04;;;;;;;7.67;6.23;;;;;;;;;;5054649;28;20052;-63
2022/06/02 07:24:39;;;;;;;13.20;8.60;;;;;;;;;;5055930;28;20045;-63
2022/06/02 07:27:05;;;;;;;14.60;6.40;;;;;;;;;;5057049;28;20047;-63
2022/06/02 07:29:42;;;;;;;9.73;5.70;;;;;;;;;;5058097;28;20064;-63
2022/06/02 07:32:27;;;;;;;9.97;7.43;;;;;;;;;;5057084;28;20047;-63
2022/06/02 07:35:02;;;;;;;9.07;5.20;;;;;;;;;;5050015;28;20124;-63
2022/06/02 07:37:30;;;;;;;8.30;5.93;;;;;;;;;;5063611;28;20147;-63
2022/06/02 07:40:05;;;;;;;7.40;5.50;;;;;;;;;;5060991;28;20048;-63
2022/06/02 07:42:40;;;;;;;6.20;4.50;;;;;;;;;;5056889;28;20049;-63
2022/06/02 07:45:24;;;;;;;7.43;3.97;;;;;;;;;;5064213;28;20051;-63
2022/06/02 07:47:59;;;;;;;5.20;4.23;;;;;;;;;;5056927;28;20048;-63
2022/06/02 07:50:51;;;;;;;6.97;4.43;;;;;;;;;;5066445;28;20044;-63
2022/06/02 07:53:26;;;;;;;5.43;3.50;;;;;;;;;;5055164;28;20577;-63
2022/06/02 07:55:59;;;;;;;6.30;3.73;;;;;;;;;;5051418;28;20045;-62
2022/06/02 07:58:25;;;;;;;5.68;2.78;;;;;;;;;;5061064;28;20617;-63
2022/06/02 08:00:58;;;;;;;8.53;3.33;;;;;;;;;;5052073;28;20132;-63
2022/06/02 08:03:33;;;;;;;6.30;4.57;;;;;;;;;;5055510;28;20411;-63
2022/06/02 08:06:06;;;;;;;7.30;3.50;;;;;;;;;;5060180;28;20506;-63
2022/06/02 08:08:49;;;;;;;4.95;3.40;;;;;;;;;;5057413;28;20062;-62
2022/06/02 08:11:29;;;;;;;4.93;2.15;;;;;;;;;;5063610;28;20056;-60
2022/06/02 08:14:07;;;;;;;5.10;1.80;;;;;;;;;;5051072;28;20406;-60
2022/06/02 08:16:51;;;;;;;6.67;1.87;;;;;;;;;;5055097;28;20041;-60
2022/06/02 08:19:23;;;;;;;3.23;2.20;;;;;;;;;;5064871;28;20123;-60
2022/06/02 08:21:53;;;;;;;4.53;2.40;;;;;;;;;;5065478;28;20132;-60
2022/06/02 08:24:19;;;;;;;4.03;1.60;;;;;;;;;;5060988;28;20041;-60
2022/06/02 08:26:54;;;;;;;4.07;1.77;;;;;;;;;;5058910;28;20044;-60
2022/06/02 08:29:20;;;;;;;4.43;1.90;;;;;;;;;;5066481;28;20052;-60
2022/06/02 08:31:58;;;;;;;3.33;1.60;;;;;;;;;;5052051;28;20053;-60
2022/06/02 08:34:27;;;;;;;6.63;1.37;;;;;;;;;;5052490;28;20041;-60
2022/06/02 08:37:11;;;;;;;5.13;1.50;;;;;;;;;;5059711;28;20098;-61
2022/06/02 08:39:46;;;;;;;3.83;1.60;;;;;;;;;;5057375;28;20048;-60
2022/06/02 08:42:21;;;;;;;2.43;1.40;;;;;;;;;;5067802;28;20047;-60
2022/06/02 08:44:57;;;;;;;3.40;1.87;;;;;;;;;;5068948;28;20438;-60
2022/06/02 08:47:26;;;;;;;4.67;1.70;;;;;;;;;;5056970;28;20052;-60
2022/06/02 08:49:55;;;;;;;5.93;1.80;;;;;;;;;;5049272;28;20049;-60
2022/06/02 08:52:21;;;;;;;6.23;1.97;;;;;;;;;;5055535;28;20049;-61
2022/06/02 08:55:06;;;;;;;2.80;1.80;;;;;;;;;;5052355;28;20044;-61
2022/06/02 08:57:51;;;;;;;2.50;1.33;;;;;;;;;;5054584;28;20056;-61
2022/06/02 09:00:20;;;;;;;3.10;1.67;;;;;;;;;;5059874;28;20087;-60
2022/06/02 09:02:50;;;;;;;4.30;1.57;;;;;;;;;;5065635;28;20123;-61
2022/06/02 09:05:34;;;;;;;2.73;1.40;;;;;;;;;;5062674;28;20778;-60
2022/06/02 09:08:03;;;;;;;2.60;1.47;;;;;;;;;;5057819;28;20052;-61
2022/06/02 09:10:40;;;;;;;3.40;1.83;;;;;;;;;;5063357;28;20068;-61
2022/06/02 09:13:25;;;;;;;3.70;2.00;;;;;;;;;;5056783;28;20124;-61
2022/06/02 09:16:02;;;;;;;3.20;2.27;;;;;;;;;;5043706;28;20062;-61
2022/06/02 09:18:34;;;;;;;2.90;1.40;;;;;;;;;;5056396;28;20048;-61
2022/06/02 09:21:07;;;;;;;4.07;1.90;;;;;;;;;;5052415;28;20045;-61
2022/06/02 09:23:33;;;;;;;3.60;1.42;;;;;;;;;;5061465;28;20045;-61
2022/06/02 09:25:59;;;;;;;3.27;1.90;;;;;;;;;;5064057;28;20039;-61
2022/06/02 09:28:43;;;;;;;7.10;2.53;;;;;;;;;;5052918;28;20407;-61
2022/06/02 09:31:22;;;;;;;4.43;1.73;;;;;;;;;;5058422;28;20052;-61
2022/06/02 09:34:07;;;;;;;3.70;1.60;;;;;;;;;;5066709;28;20076;-61
2022/06/02 09:36:52;;;;;;;4.40;1.30;;;;;;;;;;5066381;28;20056;-61
2022/06/02 09:39:24;;;;;;;3.97;1.73;;;;;;;;;;5064814;28;20044;-61
2022/06/02 09:41:59;;;;;;;2.60;1.63;;;;;;;;;;5061733;28;20048;-61
2022/06/02 09:44:31;;;;;;;4.47;1.50;;;;;;;;;;5070651;28;20090;-61
2022/06/02 09:47:03;;;;;;;2.55;1.65;;;;;;;;;;5058962;28;20054;-61
2022/06/02 09:49:38;;;;;;;4.70;1.63;;;;;;;;;;5056473;28;20052;-61
2022/06/02 09:52:21;;;;;;;3.50;1.40;;;;;;;;;;5062799;28;20348;-61
2022/06/02 09:55:02;;;;;;;5.23;1.77;;;;;;;;;;5060497;28;20048;-61
2022/06/02 10:00:24;;;;;;;6.90;1.50;;;;;;;;;;5069507;28;20040;-61
2022/06/02 10:02:50;;;;;;;7.67;2.00;;;;;;;;;;5071204;28;20463;-61
2022/06/02 10:05:23;;;;;;;2.43;1.60;;;;;;;;;;5070473;28;20609;-61
2022/06/02 10:07:49;;;;;;;2.58;1.45;;;;;;;;;;5051989;28;20111;-61
2022/06/02 10:10:21;;;;;;;4.33;1.47;;;;;;;;;;5068007;28;20051;-61
2022/06/02 10:12:58;;;;;;;2.55;1.38;;;;;;;;;;5065787;28;20055;-61
2022/06/02 10:15:27;;;;;;;2.77;1.53;;;;;;;;;;5068623;28;20462;-60
2022/06/02 10:18:12;;;;;;;3.53;1.27;;;;;;;;;;5068433;28;20063;-60
2022/06/02 10:20:43;;;;;;;3.80;1.20;;;;;;;;;;5065622;28;20052;-60
2022/06/02 10:23:09;;;;;;;3.00;1.40;;;;;;;;;;5071156;28;20044;-60
2022/06/02 10:26:01;;;;;;;4.83;1.00;;;;;;;;;;5066876;28;20048;-60
2022/06/02 10:28:46;;;;;;;4.47;1.13;;;;;;;;;;5052814;28;20048;-61
2022/06/02 10:31:30;;;;;;;2.90;1.00;;;;;;;;;;5057026;28;20511;-61
2022/06/02 10:33:56;;;;;;;3.70;1.30;;;;;;;;;;5052161;28;20097;-60
2022/06/02 10:36:28;;;;;;;5.17;2.07;;;;;;;;;;5068530;28;20049;-61
2022/06/02 10:38:55;;;;;;;2.65;1.60;;;;;;;;;;5069010;28;20044;-60
2022/06/02 10:41:33;;;;;;;2.53;1.50;;;;;;;;;;5065094;28;20064;-61
2022/06/02 10:43:59;;;;;;;5.80;2.03;;;;;;;;;;5057691;28;20133;-60
2022/06/02 10:46:44;;;;;;;2.10;1.27;;;;;;;;;;5068599;28;20059;-61
2022/06/02 10:49:19;;;;;;;3.72;1.40;;;;;;;;;;5051440;28;20144;-60
2022/06/02 10:51:51;;;;;;;3.38;0.98;;;;;;;;;;5061948;28;20053;-60
2022/06/02 10:54:36;;;;;;;2.40;1.30;;;;;;;;;;5065208;28;20085;-60
2022/06/02 10:57:21;;;;;;;5.03;1.77;;;;;;;;;;5062225;28;20044;-60
2022/06/02 11:00:05;;;;;;;3.70;1.50;;;;;;;;;;5067408;28;20044;-60
2022/06/02 11:02:41;;;;;;;2.45;1.00;;;;;;;;;;5057206;28;20044;-60
2022/06/02 11:05:41;;;;;;;2.95;1.02;;;;;;;;;;5049141;28;20049;-61
2022/06/02 11:08:22;;;;;;;3.03;1.35;;;;;;;;;;5054628;28;20070;-61
2022/06/02 11:11:09;;;;;;;2.70;1.20;;;;;;;;;;5068985;28;20048;-61
2022/06/02 11:13:36;;;;;;;2.70;1.30;;;;;;;;;;5053567;28;20084;-61
2022/06/02 11:16:30;;;;;;;2.60;1.27;;;;;;;;;;5052850;28;20118;-61
2022/06/02 11:18:59;;;;;;;2.85;1.45;;;;;;;;;;5054625;28;20210;-61
2022/06/02 11:21:32;;;;;;;2.72;1.17;;;;;;;;;;5049733;28;20040;-61
2022/06/02 11:24:04;;;;;;;3.97;1.27;;;;;;;;;;5050088;28;20053;-61
2022/06/02 11:26:36;;;;;;;2.78;1.20;;;;;;;;;;5053503;28;20055;-61
2022/06/02 11:29:17;;;;;;;2.38;1.20;;;;;;;;;;5068854;28;20090;-61
2022/06/02 11:31:55;;;;;;;1.58;0.93;;;;;;;;;;5069318;28;20048;-60
2022/06/02 11:34:46;;;;;;;1.95;0.90;;;;;;;;;;5053031;28;20036;-61
2022/06/02 11:37:12;;;;;;;3.40;1.15;;;;;;;;;;5052078;28;20040;-61
2022/06/02 11:39:47;;;;;;;3.28;1.10;;;;;;;;;;5064560;28;20706;-60
2022/06/02 11:42:19;;;;;;;2.22;1.10;;;;;;;;;;5047781;28;20091;-60
2022/06/02 11:44:46;;;;;;;2.70;0.95;;;;;;;;;;5050432;28;20041;-61
2022/06/02 11:47:15;;;;;;;2.67;1.27;;;;;;;;;;5060312;28;20044;-61
2022/06/02 11:49:44;;;;;;;3.88;1.20;;;;;;;;;;5069712;28;20087;-61
2022/06/02 11:52:25;;;;;;;3.15;1.40;;;;;;;;;;5069248;28;20044;-60
2022/06/02 11:55:06;;;;;;;2.25;1.00;;;;;;;;;;5048962;28;20136;-60
2022/06/02 11:57:35;;;;;;;2.00;1.02;;;;;;;;;;5060450;28;20048;-60
2022/06/02 12:00:20;;;;;;;3.25;1.10;;;;;;;;;;5058036;28;20080;-60
2022/06/02 12:02:52;;;;;;;2.15;0.90;;;;;;;;;;5056436;28;20048;-60
2022/06/02 12:05:24;;;;;;;2.13;1.00;;;;;;;;;;5068598;28;20573;-61
2022/06/02 12:08:00;;;;;;;2.65;1.35;;;;;;;;;;5055994;28;20071;-61
2022/06/02 12:10:50;;;;;;;1.98;1.00;;;;;;;;;;5047347;28;20060;-60
2022/06/02 12:13:20;;;;;;;3.15;1.02;;;;;;;;;;5048391;28;20041;-61
2022/06/02 12:15:58;;;;;;;2.28;1.00;;;;;;;;;;5058832;28;20091;-61
2022/06/02 12:18:32;;;;;;;1.55;0.93;;;;;;;;;;5056017;28;20494;-61
2022/06/02 12:21:10;;;;;;;1.38;0.70;;;;;;;;;;5048311;28;20041;-61
2022/06/02 12:23:42;;;;;;;3.00;0.90;;;;;;;;;;5048873;28;20278;-61
2022/06/02 12:26:17;;;;;;;3.42;0.90;;;;;;;;;;5052595;28;20037;-61
2022/06/02 12:29:02;;;;;;;1.80;0.80;;;;;;;;;;5065273;28;20060;-61
2022/06/02 12:31:40;;;;;;;2.15;0.80;;;;;;;;;;5063367;28;20045;-61
2022/06/02 12:34:19;;;;;;;1.65;0.73;;;;;;;;;;5060845;28;20062;-60
2022/06/02 12:36:54;;;;;;;1.45;0.90;;;;;;;;;;5051031;28;20048;-61
2022/06/02 12:39:23;;;;;;;3.85;0.82;;;;;;;;;;5057310;28;20499;-61
2022/06/02 12:41:50;;;;;;;1.88;0.80;;;;;;;;;;5046995;28;20057;-61
2022/06/02 12:44:25;;;;;;;1.65;0.60;;;;;;;;;;5051682;28;20048;-61
2022/06/02 12:47:10;;;;;;;1.52;0.63;;;;;;;;;;5067568;28;20537;-61
2022/06/02 12:49:54;;;;;;;1.70;0.70;;;;;;;;;;5058170;28;20045;-60
2022/06/02 12:52:39;;;;;;;3.17;1.10;;;;;;;;;;5048889;28;20045;-61
2022/06/02 12:55:14;;;;;;;1.15;0.70;;;;;;;;;;5064428;28;20052;-60
2022/06/02 12:57:43;;;;;;;1.55;0.80;;;;;;;;;;5058290;28;20056;-60
2022/06/02 13:00:27;;;;;;;2.95;0.57;;;;;;;;;;5059265;28;20053;-61
2022/06/02 13:03:00;;;;;;;1.58;0.65;;;;;;;;;;5061202;28;20098;-60
2022/06/02 13:05:35;;;;;;;3.13;0.95;;;;;;;;;;5061143;28;20053;-60
2022/06/02 13:08:20;;;;;;;3.55;0.80;;;;;;;;;;5056913;28;20044;-60
2022/06/02 13:10:55;;;;;;;1.15;0.70;;;;;;;;;;5062007;28;20045;-60
2022/06/02 13:13:27;;;;;;;1.55;0.70;;;;;;;;;;5064970;28;20044;-60
2022/06/02 13:16:08;;;;;;;3.03;0.70;;;;;;;;;;5061111;28;20533;-60
2022/06/02 13:18:53;;;;;;;3.05;0.82;;;;;;;;;;5064128;28;20098;-60
2022/06/02 13:21:38;;;;;;;1.65;0.63;;;;;;;;;;5053302;28;20051;-61
2022/06/02 13:24:19;;;;;;;2.47;1.10;;;;;;;;;;5053300;28;20476;-60
2022/06/02 13:26:56;;;;;;;3.42;0.80;;;;;;;;;;5055290;28;20045;-60
2022/06/02 13:29:28;;;;;;;1.95;0.90;;;;;;;;;;5064556;28;20075;-60
2022/06/02 13:31:57;;;;;;;3.50;0.73;;;;;;;;;;5068952;28;20059;-60
2022/06/02 13:34:36;;;;;;;2.65;0.80;;;;;;;;;;5058802;28;20045;-61
2022/06/02 13:37:05;;;;;;;2.00;0.90;;;;;;;;;;5055834;28;20053;-61
2022/06/02 13:39:34;;;;;;;0.60;0.50;;;;;;;;;;5061678;28;20422;-61
2022/06/02 13:42:19;;;;;;;1.35;0.60;;;;;;;;;;5058370;28;20052;-61
2022/06/02 13:44:45;;;;;;;1.73;0.90;;;;;;;;;;5061344;28;20136;-61
2022/06/02 13:47:12;;;;;;;2.65;0.80;;;;;;;;;;5060568;28;20048;-61
2022/06/02 13:49:57;;;;;;;2.30;0.95;;;;;;;;;;5063222;28;20422;-60
2022/06/02 13:52:53;;;;;;;2.53;0.70;;;;;;;;;;5059195;28;20048;-61
2022/06/02 13:58:22;;;;;;;2.88;0.60;;;;;;;;;;5061013;28;20160;-61
2022/06/02 14:01:04;;;;;;;1.52;0.60;;;;;;;;;;5055736;28;20119;-61
2022/06/02 14:03:36;;;;;;;1.17;0.55;;;;;;;;;;5052185;28;20056;-61
2022/06/02 14:06:11;;;;;;;1.10;0.60;;;;;;;;;;5065300;28;20044;-61
2022/06/02 14:08:37;;;;;;;2.83;0.75;;;;;;;;;;5050183;28;20144;-61
2022/06/02 14:11:06;;;;;;;1.33;0.50;;;;;;;;;;5051373;28;20049;-61
2022/06/02 14:13:35;;;;;;;1.77;0.80;;;;;;;;;;5049932;28;20044;-61
2022/06/02 14:16:19;;;;;;;1.73;0.60;;;;;;;;;;5051393;28;20507;-61
2022/06/02 14:19:05;;;;;;;2.65;0.68;;;;;;;;;;5051251;28;20056;-61
2022/06/02 14:21:54;;;;;;;1.63;0.50;;;;;;;;;;5051536;28;20048;-61
2022/06/02 14:24:26;;;;;;;1.52;0.57;;;;;;;;;;5058264;28;20056;-61
2022/06/02 14:26:57;;;;;;;2.15;0.50;;;;;;;;;;5061777;28;20064;-61
2022/06/02 14:29:24;;;;;;;1.08;0.50;;;;;;;;;;5051413;28;20049;-61
2022/06/02 14:32:07;;;;;;;1.48;0.55;;;;;;;;;;5066850;28;20047;-62
2022/06/02 14:34:53;;;;;;;1.50;0.70;;;;;;;;;;5058110;28;20041;-61
2022/06/02 14:37:37;;;;;;;2.67;0.60;;;;;;;;;;5070739;28;20490;-61
2022/06/02 14:40:13;;;;;;;1.20;0.52;;;;;;;;;;5063280;28;20053;-61
2022/06/02 14:43:04;;;;;;;1.85;0.68;;;;;;;;;;5049425;28;20053;-61
2022/06/02 14:45:36;;;;;;;2.37;0.60;;;;;;;;;;5055125;28;20511;-61
2022/06/02 14:48:22;;;;;;;1.50;0.60;;;;;;;;;;5071067;28;20097;-61
2022/06/02 14:50:57;;;;;;;2.78;0.40;;;;;;;;;;5070065;28;20056;-61
2022/06/02 14:53:45;;;;;;;2.10;0.57;;;;;;;;;;5055397;28;20049;-61
2022/06/02 14:56:11;;;;;;;1.35;0.60;;;;;;;;;;5049939;28;20059;-61
2022/06/02 14:58:46;;;;;;;1.92;0.50;;;;;;;;;;5050643;28;20142;-61
2022/06/02 15:01:25;;;;;;;1.65;0.60;;;;;;;;;;5057325;28;20044;-61
2022/06/02 15:03:54;;;;;;;1.48;0.70;;;;;;;;;;5051050;28;20052;-61
2022/06/02 15:06:42;;;;;;;1.35;0.60;;;;;;;;;;5050603;28;20052;-61
2022/06/02 15:09:27;;;;;;;2.47;0.70;;;;;;;;;;5050155;28;20082;-61
2022/06/02 15:11:53;;;;;;;2.85;0.80;;;;;;;;;;5050471;28;20458;-61
2022/06/02 15:14:25;;;;;;;1.67;0.57;;;;;;;;;;5050364;28;20049;-61
2022/06/02 15:17:10;;;;;;;0.57;0.35;;;;;;;;;;5065799;28;20076;-61
2022/06/02 15:19:48;;;;;;;2.08;0.75;;;;;;;;;;5060789;28;20087;-61
2022/06/02 15:22:21;;;;;;;2.08;0.60;;;;;;;;;;5049802;28;20056;-61
2022/06/02 15:25:09;;;;;;;1.77;0.85;;;;;;;;;;5049631;28;20067;-61
2022/06/02 15:27:49;;;;;;;2.03;0.73;;;;;;;;;;5050127;28;20049;-61
2022/06/02 15:30:23;;;;;;;1.48;0.70;;;;;;;;;;5049251;28;20405;-61